Time;durP1;ratioP1;P1;durP2;ratioP2;P2;SDS_P1;SDS_P2;PMS_P1;PMS_P2;Temp;Humidity;BMP_temperature;BMP_pressure;BME280_temperature;BME280_humidity;BME280_pressure;Samples;Min_cycle;Max_cycle;Signal;HPM_P1;HPM_P2
2023/11/15 00:00:07;;;;;;;5.10;1.35;;;14.90;70.70;16.60;100535.00;;;;5013390;28;20229;-77
2023/11/15 00:02:34;;;;;;;3.83;1.00;;;14.90;70.80;16.70;100535.00;;;;5004982;28;20189;-77
2023/11/15 00:05:02;;;;;;;4.35;1.20;;;14.90;70.70;16.70;100542.00;;;;5006027;28;20555;-77
2023/11/15 00:07:30;;;;;;;4.47;1.33;;;14.90;70.70;16.70;100546.00;;;;5006674;28;20196;-77
2023/11/15 00:09:57;;;;;;;3.60;1.05;;;15.00;70.80;16.70;100541.00;;;;5006049;28;20587;-77
2023/11/15 00:12:24;;;;;;;3.42;1.60;;;15.00;70.80;16.70;100544.00;;;;4967951;28;1135844;-77
2023/11/15 00:14:53;;;;;;;5.40;1.70;;;15.00;70.10;16.70;100547.00;;;;5005291;28;20644;-77
2023/11/15 00:17:20;;;;;;;6.85;1.77;;;15.00;70.70;16.70;100557.00;;;;5005539;28;20260;-78
2023/11/15 00:19:49;;;;;;;4.80;1.75;;;15.00;70.60;16.70;100554.00;;;;4995855;28;20217;-77
2023/11/15 00:22:16;;;;;;;6.82;1.42;;;15.00;70.60;16.60;100552.00;;;;5011140;28;20193;-77
2023/11/15 00:24:44;;;;;;;6.60;1.42;;;15.00;70.60;16.60;100551.00;;;;5009139;28;20208;-77
2023/11/15 00:27:12;;;;;;;5.00;1.90;;;15.00;70.60;16.60;100562.00;;;;5009531;28;20209;-78
2023/11/15 00:29:39;;;;;;;5.85;1.75;;;15.00;70.60;16.60;100565.00;;;;5010040;28;20208;-77
2023/11/15 00:32:08;;;;;;;6.35;2.00;;;15.00;70.70;16.60;100566.00;;;;5013241;28;20694;-77
2023/11/15 00:34:35;;;;;;;5.93;1.40;;;15.00;70.70;16.60;100568.00;;;;5008790;28;20201;-77
2023/11/15 00:37:02;;;;;;;3.80;1.45;;;15.00;70.80;16.60;100568.00;;;;5009514;28;20237;-77
2023/11/15 00:39:30;;;;;;;6.70;2.25;;;15.00;70.80;16.60;100568.00;;;;5009666;28;20613;-77
2023/11/15 00:41:57;;;;;;;8.65;1.52;;;15.00;70.80;16.60;100565.00;;;;5010057;28;20189;-77
2023/11/15 00:44:24;;;;;;;5.97;1.52;;;15.00;70.90;16.70;100575.00;;;;5009005;28;20201;-77
2023/11/15 00:46:51;;;;;;;5.63;1.45;;;15.10;70.90;16.70;100586.00;;;;5004774;28;20533;-77
2023/11/15 00:49:21;;;;;;;7.78;1.65;;;15.00;70.90;16.70;100582.00;;;;5008890;28;20203;-77
2023/11/15 00:51:48;;;;;;;4.75;1.40;;;15.10;71.00;16.70;100592.00;;;;5008372;28;20208;-77
2023/11/15 00:54:15;;;;;;;9.13;1.95;;;15.10;71.00;16.70;100598.00;;;;5009217;28;20678;-77
2023/11/15 00:56:42;;;;;;;5.18;1.67;;;15.10;71.00;16.70;100603.00;;;;5008437;28;20205;-77
2023/11/15 00:59:10;;;;;;;5.05;1.33;;;15.10;71.00;16.70;100602.00;;;;5009969;28;20220;-77
2023/11/15 01:01:38;;;;;;;9.18;1.65;;;15.10;71.00;16.70;100595.00;;;;5010381;28;20197;-77
2023/11/15 01:04:06;;;;;;;6.25;1.73;;;15.10;71.00;16.70;100608.00;;;;5010071;28;20279;-77
2023/11/15 01:06:34;;;;;;;7.65;1.63;;;15.10;71.00;16.70;100607.00;;;;5009980;28;20193;-77
2023/11/15 01:09:07;;;;;;;4.80;1.55;;;15.10;71.00;16.80;100610.00;;;;5011647;28;20694;-77
2023/11/15 01:11:34;;;;;;;3.13;1.35;;;15.20;71.20;16.80;100611.00;;;;5006180;28;20703;-78
2023/11/15 01:14:03;;;;;;;4.32;1.52;;;15.20;71.10;16.80;100629.00;;;;5009170;28;20296;-77
2023/11/15 01:16:30;;;;;;;7.00;1.35;;;15.20;71.10;16.80;100631.00;;;;5010718;28;20201;-77
2023/11/15 01:18:57;;;;;;;6.55;1.45;;;15.20;71.10;16.80;100634.00;;;;5010078;28;20236;-77
2023/11/15 01:21:25;;;;;;;3.08;1.52;;;15.20;71.00;16.80;100634.00;;;;5005209;28;20201;-77
2023/11/15 01:23:53;;;;;;;3.10;1.00;;;15.20;70.90;16.70;100631.00;;;;5009673;28;20196;-77
2023/11/15 01:26:20;;;;;;;3.80;1.38;;;15.20;70.70;16.70;100652.00;;;;5008593;28;20255;-78
2023/11/15 01:28:48;;;;;;;4.32;0.90;;;15.20;70.50;16.70;100649.00;;;;5009764;28;20654;-78
2023/11/15 01:31:15;;;;;;;5.05;1.27;;;15.20;70.40;16.60;100657.00;;;;5006246;28;21536;-78
2023/11/15 01:33:43;;;;;;;3.33;0.90;;;15.20;70.40;16.60;100657.00;;;;5008964;28;20224;-77
2023/11/15 01:36:11;;;;;;;4.25;1.20;;;15.10;70.30;16.60;100663.00;;;;5009773;28;20201;-78
2023/11/15 01:38:38;;;;;;;4.78;1.80;;;15.10;70.30;16.60;100663.00;;;;5008757;28;20203;-78
2023/11/15 01:41:07;;;;;;;5.80;1.52;;;15.10;70.40;16.60;100675.00;;;;5009521;28;20445;-78
2023/11/15 01:43:34;;;;;;;5.05;1.17;;;15.10;70.40;16.60;100683.00;;;;5008551;28;20204;-78
2023/11/15 01:46:02;;;;;;;6.88;1.42;;;15.10;70.50;16.70;100684.00;;;;5009235;28;20193;-78
2023/11/15 01:48:32;;;;;;;5.20;1.10;;;15.10;70.50;16.70;100679.00;;;;5004241;28;20201;-78
2023/11/15 01:51:00;;;;;;;3.35;1.10;;;15.10;70.60;16.70;100687.00;;;;5005882;28;20209;-78
2023/11/15 01:53:28;;;;;;;6.78;1.50;;;15.10;70.60;16.70;100697.00;;;;5007938;28;20205;-77
2023/11/15 01:55:55;;;;;;;6.93;1.23;;;15.10;70.60;16.70;100688.00;;;;5007629;28;20212;-78
2023/11/15 01:58:26;;;;;;;4.68;1.05;;;15.10;70.60;16.70;100695.00;;;;5008837;28;20734;-78
2023/11/15 02:00:54;;;;;;;4.50;1.13;;;15.10;70.70;16.70;100688.00;;;;5007563;28;20224;-78
2023/11/15 02:03:22;;;;;;;6.50;1.42;;;15.10;70.60;16.70;100692.00;;;;5009223;28;20193;-77
2023/11/15 02:05:49;;;;;;;4.28;1.17;;;15.10;70.60;16.70;100708.00;;;;5008800;28;20208;-78
2023/11/15 02:08:17;;;;;;;8.45;1.40;;;15.10;70.60;16.70;100709.00;;;;4996847;28;20211;-77
2023/11/15 02:10:44;;;;;;;7.30;1.52;;;15.10;70.50;16.70;100716.00;;;;5007413;28;20225;-78
2023/11/15 02:13:30;;;;;;;10.32;1.95;;;15.10;70.50;16.60;100715.00;;;;5009029;28;20639;-77
2023/11/15 02:15:57;;;;;;;4.28;1.00;;;15.10;70.60;16.70;100714.00;;;;5014236;28;20266;-78
2023/11/15 02:18:25;;;;;;;9.18;1.42;;;15.10;70.50;16.70;100718.00;;;;5003722;28;20651;-78
2023/11/15 02:20:53;;;;;;;6.25;1.25;;;15.10;70.50;16.70;100721.00;;;;5007240;28;20253;-77
2023/11/15 02:23:22;;;;;;;4.45;1.15;;;15.10;70.50;16.70;100732.00;;;;5008323;28;20205;-77
2023/11/15 02:25:54;;;;;;;7.72;1.25;;;15.10;70.50;16.60;100722.00;;;;5008236;28;20211;-77
2023/11/15 02:28:21;;;;;;;7.43;1.65;;;15.10;70.50;16.70;100730.00;;;;5007511;28;20201;-77
2023/11/15 02:30:48;;;;;;;6.25;1.48;;;15.10;70.50;16.70;100722.00;;;;5009819;28;20220;-77
2023/11/15 02:33:16;;;;;;;4.38;1.33;;;15.10;70.50;16.70;100737.00;;;;5007011;28;20201;-77
2023/11/15 02:35:43;;;;;;;6.72;1.17;;;15.10;70.50;16.70;100730.00;;;;5008676;28;20259;-77
2023/11/15 02:38:10;;;;;;;6.03;1.48;;;15.10;70.50;16.70;100735.00;;;;5007179;28;20221;-77
2023/11/15 02:40:37;;;;;;;2.22;1.05;;;15.10;70.60;16.70;100731.00;;;;5007899;28;20243;-77
2023/11/15 02:43:06;;;;;;;4.95;1.02;;;15.10;70.60;16.70;100737.00;;;;5005848;28;20197;-77
2023/11/15 02:45:33;;;;;;;3.63;1.38;;;15.10;70.60;16.70;100738.00;;;;4995560;28;20582;-77
2023/11/15 02:48:00;;;;;;;4.72;1.40;;;15.10;70.60;16.70;100731.00;;;;5009586;28;20212;-77
2023/11/15 02:50:30;;;;;;;4.80;1.13;;;15.10;70.60;16.70;100730.00;;;;5006022;28;20224;-77
2023/11/15 02:52:58;;;;;;;5.28;1.52;;;15.10;70.60;16.70;100735.00;;;;5006739;28;20202;-77
2023/11/15 02:55:25;;;;;;;5.32;1.38;;;15.10;70.50;16.70;100736.00;;;;5007618;28;21072;-77
2023/11/15 02:57:52;;;;;;;6.00;1.48;;;15.10;70.60;16.70;100734.00;;;;5007835;28;20205;-78
2023/11/15 03:00:21;;;;;;;10.05;2.38;;;15.10;70.60;16.70;100736.00;;;;5008279;28;20217;-78
2023/11/15 03:02:49;;;;;;;4.30;1.35;;;15.10;70.60;16.70;100735.00;;;;5006942;28;20201;-77
2023/11/15 03:05:17;;;;;;;6.57;1.50;;;15.10;70.60;16.70;100741.00;;;;5008908;28;20204;-77
2023/11/15 03:07:44;;;;;;;3.22;1.23;;;15.10;70.60;16.60;100746.00;;;;5008796;28;20204;-77
2023/11/15 03:10:11;;;;;;;5.57;1.20;;;15.10;70.60;16.60;100736.00;;;;5007422;28;20213;-78
2023/11/15 03:12:38;;;;;;;6.78;1.55;;;15.10;70.60;16.70;100753.00;;;;5007265;28;20680;-77
2023/11/15 03:15:06;;;;;;;6.65;1.13;;;15.10;70.70;16.70;100755.00;;;;4991258;28;20292;-77
2023/11/15 03:17:35;;;;;;;6.68;1.58;;;15.10;70.70;16.70;100759.00;;;;5008068;28;20193;-78
2023/11/15 03:20:05;;;;;;;6.75;1.90;;;15.10;70.80;16.70;100748.00;;;;5008469;28;20225;-78
2023/11/15 03:22:32;;;;;;;7.47;1.05;;;15.10;70.80;16.70;100758.00;;;;5007700;28;20267;-78
2023/11/15 03:24:59;;;;;;;8.18;1.42;;;15.10;70.80;16.70;100759.00;;;;5007666;28;20189;-77
2023/11/15 03:27:26;;;;;;;9.57;1.38;;;15.20;70.90;16.80;100763.00;;;;5008348;28;20574;-77
2023/11/15 03:29:54;;;;;;;8.23;1.73;;;15.10;70.80;16.80;100761.00;;;;5008034;28;20203;-77
2023/11/15 03:32:22;;;;;;;9.25;1.60;;;15.10;70.70;16.80;100768.00;;;;5007734;28;20200;-77
2023/11/15 03:34:51;;;;;;;9.00;1.95;;;15.20;70.80;16.70;100778.00;;;;5006052;28;20193;-78
2023/11/15 03:37:18;;;;;;;3.13;1.08;;;15.20;70.70;16.70;100772.00;;;;5008378;28;20291;-77
2023/11/15 03:39:45;;;;;;;4.70;1.38;;;15.20;70.70;16.70;100774.00;;;;5009154;28;20581;-77
2023/11/15 03:42:12;;;;;;;4.45;1.00;;;15.10;70.50;16.70;100775.00;;;;5008073;28;20721;-77
2023/11/15 03:44:40;;;;;;;6.22;1.00;;;15.10;70.50;16.70;100775.00;;;;5007284;28;20776;-78
2023/11/15 03:47:07;;;;;;;3.53;1.10;;;15.10;70.50;16.70;100779.00;;;;5007509;28;20295;-78
2023/11/15 03:49:34;;;;;;;3.35;0.60;;;15.20;70.60;16.70;100786.00;;;;5008058;28;20201;-77
2023/11/15 03:52:03;;;;;;;5.90;1.15;;;15.10;70.60;16.70;100786.00;;;;5006719;28;20578;-78
2023/11/15 03:54:30;;;;;;;5.65;1.23;;;15.10;70.60;16.70;100789.00;;;;5009772;28;20752;-77
2023/11/15 03:56:57;;;;;;;4.63;0.93;;;15.10;70.60;16.70;100788.00;;;;5013021;28;20197;-77
2023/11/15 03:59:24;;;;;;;8.20;1.20;;;15.10;70.70;16.70;100788.00;;;;5011531;28;20189;-77
2023/11/15 04:01:52;;;;;;;5.63;1.52;;;15.10;70.70;16.70;100789.00;;;;5010157;28;20221;-77
2023/11/15 04:04:19;;;;;;;5.57;1.20;;;15.10;70.70;16.70;100797.00;;;;5011687;28;20201;-78
2023/11/15 04:06:46;;;;;;;5.55;1.33;;;15.10;70.80;16.70;100803.00;;;;5011297;28;20197;-77
2023/11/15 04:09:14;;;;;;;4.22;0.73;;;15.10;70.80;16.70;100802.00;;;;5012134;28;20579;-77
2023/11/15 04:11:41;;;;;;;3.55;1.27;;;15.10;70.80;16.70;100804.00;;;;5008192;28;20232;-77
2023/11/15 04:14:08;;;;;;;4.57;1.20;;;15.20;70.80;16.70;100808.00;;;;5012059;28;20204;-77
2023/11/15 04:16:35;;;;;;;8.40;1.30;;;15.10;70.70;16.70;100804.00;;;;5009836;28;20204;-78
2023/11/15 04:19:03;;;;;;;9.80;1.60;;;15.10;70.60;16.70;100812.00;;;;5010981;28;20201;-78
2023/11/15 04:21:30;;;;;;;6.45;1.00;;;15.10;70.60;16.70;100814.00;;;;5011232;28;20201;-78
2023/11/15 04:23:57;;;;;;;7.53;1.50;;;15.10;70.60;16.70;100813.00;;;;5008803;28;20206;-78
2023/11/15 04:26:26;;;;;;;6.00;0.90;;;15.10;70.50;16.70;100823.00;;;;5002955;28;20197;-77
2023/11/15 04:28:53;;;;;;;3.97;1.10;;;15.10;70.60;16.80;100818.00;;;;5011296;28;20213;-77
2023/11/15 04:31:21;;;;;;;7.72;1.30;;;15.10;70.60;16.80;100824.00;;;;5017596;28;20217;-77
2023/11/15 04:33:48;;;;;;;4.25;1.13;;;15.10;70.60;16.80;100819.00;;;;5008921;28;20296;-78
2023/11/15 04:36:19;;;;;;;6.22;1.10;;;15.20;70.60;16.80;100835.00;;;;5010603;28;20193;-78
2023/11/15 04:38:47;;;;;;;4.88;1.65;;;15.20;70.60;16.80;100839.00;;;;5010552;28;20205;-78
2023/11/15 04:41:15;;;;;;;4.57;1.38;;;15.10;70.50;16.80;100844.00;;;;5011274;28;20264;-78
2023/11/15 04:43:43;;;;;;;7.35;1.23;;;15.20;70.60;16.70;100844.00;;;;5009181;28;20275;-78
2023/11/15 04:46:10;;;;;;;7.55;1.38;;;15.20;70.60;16.70;100850.00;;;;5006490;28;20194;-78
2023/11/15 04:48:38;;;;;;;7.10;1.25;;;15.20;70.60;16.70;100850.00;;;;5010858;28;20201;-77
2023/11/15 04:51:06;;;;;;;5.40;1.08;;;15.10;70.50;16.70;100847.00;;;;5009890;28;20205;-78
2023/11/15 04:53:34;;;;;;;5.22;1.25;;;15.20;70.60;16.70;100858.00;;;;5009726;28;20203;-77
2023/11/15 04:56:02;;;;;;;4.20;1.02;;;15.20;70.60;16.70;100858.00;;;;5010316;28;20204;-78
2023/11/15 04:58:29;;;;;;;7.50;1.10;;;15.20;70.60;16.70;100857.00;;;;5009988;28;20205;-78
2023/11/15 05:00:57;;;;;;;4.25;0.73;;;15.10;70.50;16.70;100858.00;;;;5009332;28;20220;-77
2023/11/15 05:03:24;;;;;;;7.88;1.20;;;15.10;70.60;16.70;100862.00;;;;5009844;28;20204;-78
2023/11/15 05:05:52;;;;;;;4.32;1.23;;;15.20;71.30;16.80;100862.00;;;;5009315;28;20189;-78
2023/11/15 05:08:19;;;;;;;5.03;1.10;;;15.10;70.60;16.80;100863.00;;;;5008396;28;20935;-78
2023/11/15 05:10:46;;;;;;;3.90;0.90;;;15.10;70.60;16.80;100860.00;;;;5006928;28;20713;-78
2023/11/15 05:13:13;;;;;;;5.20;1.10;;;15.10;70.60;16.80;100864.00;;;;5010354;28;20288;-78
2023/11/15 05:15:40;;;;;;;5.68;0.90;;;15.20;70.70;16.80;100865.00;;;;5008921;28;20235;-78
2023/11/15 05:18:09;;;;;;;6.85;1.42;;;15.20;70.70;16.80;100872.00;;;;5008693;28;20209;-77
2023/11/15 05:20:36;;;;;;;5.00;1.10;;;15.20;70.70;16.80;100877.00;;;;5013068;28;20224;-78
2023/11/15 05:23:03;;;;;;;5.60;1.02;;;15.20;70.80;16.80;100870.00;;;;5011997;28;20205;-78
2023/11/15 05:25:32;;;;;;;6.38;1.23;;;15.20;70.70;16.80;100871.00;;;;5009719;28;20189;-78
2023/11/15 05:27:59;;;;;;;5.35;2.03;;;15.20;70.70;16.80;100871.00;;;;5010247;28;20205;-78
2023/11/15 05:30:26;;;;;;;4.40;1.58;;;15.20;70.70;16.80;100878.00;;;;5008205;28;20221;-78
2023/11/15 05:32:53;;;;;;;6.50;1.10;;;15.20;70.70;16.80;100880.00;;;;5010292;28;20682;-77
2023/11/15 05:35:22;;;;;;;4.05;1.10;;;15.20;70.70;16.80;100880.00;;;;5009351;28;20204;-78
2023/11/15 05:37:49;;;;;;;6.53;1.20;;;15.20;70.60;16.80;100883.00;;;;5015010;28;20203;-78
2023/11/15 05:40:16;;;;;;;4.78;1.02;;;15.20;71.00;16.80;100881.00;;;;5008648;28;20201;-78
2023/11/15 05:42:44;;;;;;;4.55;1.38;;;15.20;70.60;16.80;100888.00;;;;5009197;28;20271;-78
2023/11/15 05:45:11;;;;;;;6.55;1.60;;;15.20;70.60;16.70;100884.00;;;;5009403;28;20874;-77
2023/11/15 05:47:39;;;;;;;6.32;1.42;;;15.20;70.60;16.70;100896.00;;;;5009845;28;20213;-78
2023/11/15 05:50:09;;;;;;;6.85;1.20;;;15.20;70.60;16.70;100883.00;;;;5006552;28;21127;-78
2023/11/15 05:52:38;;;;;;;9.60;1.60;;;15.20;70.60;16.70;100881.00;;;;5009041;28;20682;-77
2023/11/15 05:55:08;;;;;;;6.07;1.17;;;15.20;70.60;16.70;100888.00;;;;5009405;28;20212;-78
2023/11/15 05:57:35;;;;;;;5.40;1.35;;;15.20;70.60;16.70;100886.00;;;;5009625;28;20205;-77
2023/11/15 06:00:10;;;;;;;4.35;1.27;;;15.20;70.60;16.70;100891.00;;;;5008109;28;20201;-77
2023/11/15 06:02:37;;;;;;;6.70;1.13;;;15.20;70.60;16.70;100895.00;;;;5008889;28;20223;-77
2023/11/15 06:05:06;;;;;;;9.25;1.20;;;15.20;70.70;16.70;100900.00;;;;5008861;28;20544;-77
2023/11/15 06:07:33;;;;;;;6.68;1.05;;;15.20;70.70;16.70;100898.00;;;;5007978;28;20197;-77
2023/11/15 06:10:02;;;;;;;4.38;1.05;;;15.10;70.60;16.70;100900.00;;;;5006361;28;20675;-77
2023/11/15 06:12:29;;;;;;;6.38;1.27;;;15.10;70.60;16.70;100903.00;;;;5018171;28;20311;-77
2023/11/15 06:14:56;;;;;;;3.97;0.90;;;15.10;70.60;16.70;100897.00;;;;5008224;28;20197;-77
2023/11/15 06:17:28;;;;;;;4.05;0.85;;;15.10;70.70;16.70;100898.00;;;;5005161;28;20697;-77
2023/11/15 06:19:57;;;;;;;5.00;1.35;;;15.10;70.80;16.70;100901.00;;;;5005030;28;20659;-77
2023/11/15 06:22:24;;;;;;;3.38;0.90;;;15.10;70.60;16.70;100910.00;;;;5007376;28;20259;-77
2023/11/15 06:24:52;;;;;;;4.93;1.45;;;15.10;70.60;16.70;100903.00;;;;5007682;28;20197;-77
2023/11/15 06:27:20;;;;;;;8.23;1.20;;;15.10;70.50;16.60;100911.00;;;;5009467;28;20667;-77
2023/11/15 06:29:48;;;;;;;3.28;1.05;;;15.10;70.50;16.60;100923.00;;;;5006436;28;20211;-77
2023/11/15 06:32:16;;;;;;;4.18;1.20;;;15.10;70.50;16.60;100919.00;;;;5005158;28;20221;-77
2023/11/15 06:34:44;;;;;;;4.22;1.08;;;15.10;70.80;16.60;100922.00;;;;5008597;28;20200;-77
2023/11/15 06:37:12;;;;;;;3.03;1.10;;;15.10;70.60;16.60;100923.00;;;;5008355;28;20197;-77
2023/11/15 06:39:40;;;;;;;4.43;0.93;;;15.10;70.60;16.70;100922.00;;;;5005023;28;20205;-77
2023/11/15 06:42:07;;;;;;;4.13;1.20;;;15.10;70.60;16.70;100930.00;;;;5005636;28;20216;-77
2023/11/15 06:44:35;;;;;;;2.47;1.13;;;15.10;70.60;16.60;100933.00;;;;5001804;28;20204;-77
2023/11/15 06:47:02;;;;;;;9.15;1.38;;;15.00;70.50;16.60;100934.00;;;;5005946;28;20735;-77
2023/11/15 06:49:29;;;;;;;3.90;0.80;;;15.00;70.50;16.60;100935.00;;;;5005106;28;20205;-77
2023/11/15 06:51:56;;;;;;;3.30;0.80;;;15.00;70.50;16.60;100949.00;;;;5004668;28;20664;-77
2023/11/15 06:54:24;;;;;;;3.25;0.73;;;15.00;70.40;16.60;100954.00;;;;5003903;28;20685;-77
2023/11/15 06:56:51;;;;;;;4.05;1.05;;;15.00;70.40;16.60;100957.00;;;;5005253;28;20193;-76
2023/11/15 06:59:20;;;;;;;2.25;0.60;;;15.00;70.40;16.60;100962.00;;;;5006024;28;20205;-76
2023/11/15 07:01:51;;;;;;;4.82;0.82;;;15.00;70.30;16.50;100966.00;;;;5007043;28;20312;-77
2023/11/15 07:04:19;;;;;;;2.67;1.00;;;15.00;70.20;16.50;100967.00;;;;5008253;28;20201;-77
2023/11/15 07:06:46;;;;;;;2.78;0.65;;;15.00;70.20;16.50;100977.00;;;;5007375;28;20263;-77
2023/11/15 07:09:15;;;;;;;2.83;0.80;;;15.00;70.10;16.50;100977.00;;;;5008204;28;20201;-77
2023/11/15 07:11:46;;;;;;;6.47;0.95;;;14.90;70.10;16.50;100977.00;;;;5006676;28;20908;-77
2023/11/15 07:14:14;;;;;;;3.03;0.80;;;14.90;70.10;16.50;100975.00;;;;5003316;28;20208;-77
2023/11/15 07:16:46;;;;;;;2.92;0.52;;;14.90;70.10;16.40;100980.00;;;;5006991;28;20243;-77
2023/11/15 07:19:14;;;;;;;2.47;0.77;;;14.90;70.20;16.50;100982.00;;;;5002687;28;20193;-77
2023/11/15 07:21:43;;;;;;;3.22;0.75;;;14.90;70.20;16.50;100979.00;;;;5004244;28;20311;-77
2023/11/15 07:24:10;;;;;;;4.93;0.95;;;14.90;70.20;16.50;100982.00;;;;5006658;28;20201;-77
2023/11/15 07:26:38;;;;;;;3.78;0.75;;;14.90;70.20;16.40;100985.00;;;;5005843;28;20929;-77
2023/11/15 07:29:06;;;;;;;4.80;1.02;;;14.80;70.10;16.40;100994.00;;;;5010238;28;20296;-77
2023/11/15 07:31:34;;;;;;;2.92;0.70;;;14.80;70.10;16.40;100992.00;;;;5011405;28;20220;-77
2023/11/15 07:34:01;;;;;;;7.88;1.27;;;14.80;70.20;16.40;100994.00;;;;5012212;28;20684;-77
2023/11/15 07:36:33;;;;;;;6.82;1.05;;;14.80;70.20;16.40;100988.00;;;;5012575;28;20209;-77
2023/11/15 07:39:00;;;;;;;2.83;1.08;;;14.80;70.20;16.40;101001.00;;;;5011522;28;20193;-78
2023/11/15 07:41:27;;;;;;;3.53;0.70;;;14.80;70.20;16.30;100996.00;;;;5010980;28;20229;-77
2023/11/15 07:43:55;;;;;;;6.13;1.25;;;14.70;70.10;16.30;101002.00;;;;5008956;28;20197;-78
2023/11/15 07:46:24;;;;;;;6.47;1.20;;;14.70;70.10;16.30;101004.00;;;;5004512;28;20204;-77
2023/11/15 07:48:51;;;;;;;7.72;1.30;;;14.70;70.10;16.30;101007.00;;;;5011601;28;20216;-77
2023/11/15 07:51:19;;;;;;;4.63;1.05;;;14.70;70.10;16.30;101005.00;;;;5009194;28;20199;-77
2023/11/15 07:53:48;;;;;;;7.45;1.65;;;14.70;70.10;16.20;101013.00;;;;5011182;28;20197;-77
2023/11/15 07:56:18;;;;;;;3.35;0.88;;;14.60;70.10;16.20;101018.00;;;;5011700;28;20220;-78
2023/11/15 07:58:46;;;;;;;4.75;1.27;;;14.70;70.20;16.20;101017.00;;;;5011605;28;20702;-77
2023/11/15 08:01:13;;;;;;;6.13;0.90;;;14.60;70.80;16.20;101026.00;;;;5011410;28;20193;-77
2023/11/15 08:03:41;;;;;;;4.70;1.00;;;14.60;70.20;16.20;101039.00;;;;5011592;28;20201;-78
2023/11/15 08:06:09;;;;;;;7.13;1.23;;;14.60;70.30;16.20;101039.00;;;;5007582;28;20216;-77
2023/11/15 08:08:36;;;;;;;3.30;1.08;;;14.60;70.40;16.20;101042.00;;;;5010507;28;20251;-78
2023/11/15 08:11:06;;;;;;;5.43;0.75;;;14.60;70.50;16.20;101044.00;;;;5011668;28;20225;-78
2023/11/15 08:13:32;;;;;;;4.97;0.90;;;14.60;70.50;16.20;101043.00;;;;5007183;28;20215;-76
2023/11/15 08:16:00;;;;;;;12.27;1.65;;;14.60;70.50;16.30;101055.00;;;;5007595;28;20573;-76
2023/11/15 08:18:28;;;;;;;5.88;1.40;;;14.60;70.60;16.30;101055.00;;;;5007001;28;20729;-76
2023/11/15 08:20:56;;;;;;;5.07;1.80;;;14.60;70.50;16.30;101058.00;;;;5005215;28;21246;-76
2023/11/15 08:23:24;;;;;;;6.53;1.42;;;14.60;70.70;16.30;101062.00;;;;5008527;28;20231;-76
2023/11/15 08:25:51;;;;;;;3.78;1.30;;;14.70;70.80;16.30;101063.00;;;;5009846;28;20216;-76
2023/11/15 08:28:20;;;;;;;4.03;1.02;;;14.60;70.80;16.30;101060.00;;;;5016652;28;20197;-76
2023/11/15 08:30:46;;;;;;;5.95;1.33;;;14.70;70.90;16.40;101063.00;;;;5008343;28;20220;-76
2023/11/15 08:33:16;;;;;;;6.85;1.73;;;14.70;70.90;16.40;101065.00;;;;5010457;28;20568;-76
2023/11/15 08:35:46;;;;;;;8.50;1.45;;;14.70;70.90;16.40;101070.00;;;;5010432;28;20289;-76
2023/11/15 08:38:14;;;;;;;6.38;1.13;;;14.80;71.00;16.40;101074.00;;;;5009897;28;20568;-76
2023/11/15 08:40:46;;;;;;;5.20;1.20;;;14.80;71.00;16.50;101070.00;;;;5009776;28;20204;-76
2023/11/15 08:43:13;;;;;;;6.03;1.35;;;14.80;71.10;16.60;101068.00;;;;5010117;28;20232;-76
2023/11/15 08:45:43;;;;;;;4.47;1.23;;;14.80;71.30;16.60;101073.00;;;;5008318;28;20737;-77
2023/11/15 08:48:11;;;;;;;9.25;1.23;;;14.90;71.40;16.60;101067.00;;;;5009401;28;20205;-76
2023/11/15 08:50:43;;;;;;;10.27;1.42;;;14.90;71.30;16.60;101070.00;;;;5008240;28;20193;-76
2023/11/15 08:53:11;;;;;;;4.40;1.33;;;15.00;71.30;16.70;101076.00;;;;5007855;28;20225;-75
2023/11/15 08:55:38;;;;;;;7.38;1.23;;;15.00;71.30;16.80;101082.00;;;;5010529;28;20200;-75
2023/11/15 08:58:05;;;;;;;3.83;0.98;;;15.00;71.40;16.80;101088.00;;;;5008231;28;20197;-76
2023/11/15 09:00:32;;;;;;;7.95;1.33;;;15.10;71.40;16.90;101083.00;;;;5008831;28;20201;-75
2023/11/15 09:03:01;;;;;;;5.40;1.08;;;15.20;71.40;16.90;101091.00;;;;5006598;28;20220;-76
2023/11/15 09:05:28;;;;;;;2.70;1.13;;;15.20;71.40;17.00;101086.00;;;;5009274;28;20554;-76
2023/11/15 09:07:56;;;;;;;6.40;1.20;;;15.20;71.30;17.00;101087.00;;;;5010646;28;20977;-76
2023/11/15 09:10:25;;;;;;;5.65;1.08;;;15.30;71.30;17.00;101083.00;;;;5010235;28;20341;-76
2023/11/15 09:12:52;;;;;;;7.47;1.05;;;15.30;71.20;17.00;101075.00;;;;5009066;28;20197;-76
2023/11/15 09:15:20;;;;;;;8.57;1.70;;;15.40;71.20;17.10;101082.00;;;;5007766;28;20205;-76
2023/11/15 09:17:48;;;;;;;7.25;1.20;;;15.40;70.90;17.00;101084.00;;;;5009227;28;20752;-76
2023/11/15 09:20:21;;;;;;;3.72;1.17;;;15.40;70.60;17.00;101082.00;;;;5013484;28;20205;-76
2023/11/15 09:22:49;;;;;;;4.65;0.82;;;15.40;70.30;17.00;101090.00;;;;5008590;28;20256;-76
2023/11/15 09:25:21;;;;;;;2.08;0.40;;;15.40;70.00;16.90;101089.00;;;;5008284;28;20193;-75
2023/11/15 09:27:50;;;;;;;4.20;0.52;;;15.40;69.70;16.90;101095.00;;;;5009574;28;20201;-76
2023/11/15 09:30:18;;;;;;;2.97;0.70;;;15.40;69.40;16.90;101085.00;;;;5009152;28;20246;-76
2023/11/15 09:32:47;;;;;;;7.78;1.10;;;15.40;69.40;16.90;101088.00;;;;5009234;28;20673;-75
2023/11/15 09:35:16;;;;;;;3.38;1.02;;;15.40;69.40;16.90;101086.00;;;;5010442;28;20196;-76
2023/11/15 09:37:44;;;;;;;1.30;0.40;;;15.40;69.60;17.00;101096.00;;;;5013350;28;20193;-76
2023/11/15 09:40:12;;;;;;;4.38;1.23;;;15.40;69.80;17.00;101092.00;;;;5009205;28;20197;-76
2023/11/15 09:42:44;;;;;;;5.80;1.55;;;15.40;69.80;17.00;101101.00;;;;5008438;28;20219;-76
2023/11/15 09:45:17;;;;;;;3.25;0.70;;;15.40;70.10;17.10;101089.00;;;;5006405;28;20231;-76
2023/11/15 09:47:48;;;;;;;6.95;1.30;;;15.50;70.30;17.10;101093.00;;;;5006936;28;20189;-76
2023/11/15 09:50:21;;;;;;;6.65;0.77;;;15.50;70.50;17.20;101100.00;;;;5005762;28;20197;-76
2023/11/15 09:52:50;;;;;;;5.72;1.02;;;15.50;70.50;17.30;101094.00;;;;5001435;28;20200;-75
2023/11/15 09:55:18;;;;;;;4.93;0.90;;;15.60;70.60;17.30;101100.00;;;;5004513;28;20267;-76
2023/11/15 09:57:46;;;;;;;5.50;1.02;;;15.70;70.80;17.40;101115.00;;;;5005131;28;20201;-75
2023/11/15 10:00:16;;;;;;;4.00;1.05;;;15.70;70.80;17.50;101104.00;;;;5008334;28;20197;-75
2023/11/15 10:02:43;;;;;;;11.88;1.13;;;15.80;71.00;17.60;101103.00;;;;5007627;28;20278;-75
2023/11/15 10:05:18;;;;;;;10.10;1.50;;;15.80;71.00;17.60;101102.00;;;;5007078;28;20228;-75
2023/11/15 10:07:48;;;;;;;5.15;1.63;;;15.90;70.90;17.70;101103.00;;;;5007769;28;20203;-76
2023/11/15 10:10:19;;;;;;;5.85;1.27;;;16.00;70.80;17.70;101100.00;;;;5017495;28;20199;-76
2023/11/15 10:12:49;;;;;;;4.28;1.00;;;16.10;70.70;17.70;101103.00;;;;5011593;28;20553;-75
2023/11/15 10:15:18;;;;;;;6.28;0.85;;;16.10;70.60;17.80;101111.00;;;;5008460;28;20201;-75
2023/11/15 10:17:48;;;;;;;7.00;1.23;;;16.20;70.30;17.80;101105.00;;;;5007875;28;20744;-76
2023/11/15 10:20:25;;;;;;;4.55;1.20;;;16.20;70.10;17.80;101106.00;;;;5008202;28;20284;-76
2023/11/15 10:22:55;;;;;;;4.70;1.05;;;16.20;69.90;17.80;101103.00;;;;5007077;28;20220;-76
2023/11/15 10:25:25;;;;;;;3.95;1.02;;;16.30;69.90;17.90;101104.00;;;;5007822;28;20200;-76
2023/11/15 10:27:52;;;;;;;9.68;1.20;;;16.30;69.80;17.90;101107.00;;;;5008661;28;20210;-76
2023/11/15 10:30:22;;;;;;;7.43;1.17;;;16.40;69.90;18.00;101115.00;;;;5008288;28;20197;-76
2023/11/15 10:32:51;;;;;;;6.57;0.90;;;16.40;70.60;18.10;101114.00;;;;5007331;28;20204;-76
2023/11/15 10:35:38;;;;;;;5.53;1.38;;;16.50;69.90;18.10;101114.00;;;;5007004;28;20296;-76
2023/11/15 10:38:09;;;;;;;5.00;1.27;;;16.50;69.50;18.20;101110.00;;;;5007625;28;20196;-76
2023/11/15 10:40:38;;;;;;;12.93;1.45;;;16.60;69.60;18.30;101113.00;;;;5007867;28;20283;-76
2023/11/15 10:43:07;;;;;;;6.63;0.95;;;16.70;69.60;18.30;101125.00;;;;5008136;28;20212;-76
2023/11/15 10:45:38;;;;;;;3.75;0.90;;;16.70;69.50;18.40;101126.00;;;;5026971;28;20217;-76
2023/11/15 10:48:08;;;;;;;3.45;0.80;;;16.80;69.50;18.50;101125.00;;;;5008695;28;20736;-76
2023/11/15 10:50:44;;;;;;;4.57;1.40;;;16.80;69.50;18.50;101136.00;;;;5007907;28;20193;-76